createdAt,value
2022-11-20T00:04:18.213Z,58.7
2022-11-20T00:09:36.967Z,58.8
2022-11-20T00:14:55.453Z,58.8
2022-11-20T00:20:13.699Z,58.4
2022-11-20T00:25:31.894Z,58.3
2022-11-20T00:30:50.390Z,57.9
2022-11-20T00:36:08.920Z,58.4
2022-11-20T00:41:27.615Z,58.9
2022-11-20T00:46:45.828Z,58
2022-11-20T00:52:04.362Z,57.7
2022-11-20T00:57:22.541Z,57
2022-11-20T01:02:41.301Z,58.3
2022-11-20T01:07:59.260Z,57.2
2022-11-20T01:13:25.930Z,57.7
2022-11-20T01:18:44.456Z,58
2022-11-20T01:24:02.927Z,58.2
2022-11-20T01:29:22.540Z,58.2
2022-11-20T01:34:41.214Z,57.5
2022-11-20T01:39:59.709Z,57.7
2022-11-20T01:45:18.215Z,57.9
2022-11-20T01:50:36.683Z,57.6
2022-11-20T01:55:55.177Z,57.4
2022-11-20T02:01:14.108Z,58
2022-11-20T02:06:32.650Z,58.3
2022-11-20T02:11:51.156Z,57.7
2022-11-20T02:17:09.333Z,58.1
2022-11-20T02:22:27.842Z,57.6
2022-11-20T02:27:46.615Z,58.2
2022-11-20T02:33:05.094Z,58.3
2022-11-20T02:38:23.857Z,57.8
2022-11-20T02:43:42.075Z,58.7
2022-11-20T02:49:00.579Z,58.7
2022-11-20T02:54:19.322Z,58.8
2022-11-20T02:59:38.090Z,58.7
2022-11-20T03:04:56.290Z,58.2
2022-11-20T03:10:14.784Z,58.6
2022-11-20T03:15:33.267Z,58.6
2022-11-20T03:20:51.496Z,58.7
2022-11-20T03:26:09.989Z,59.3
2022-11-20T03:31:28.753Z,58.3
2022-11-20T03:36:47.537Z,59.6
2022-11-20T03:42:05.903Z,59.4
2022-11-20T03:47:24.681Z,59.1
2022-11-20T03:52:43.438Z,59.1
2022-11-20T03:58:01.949Z,58.8
2022-11-20T04:03:20.427Z,59.4
2022-11-20T04:08:38.930Z,58.9
2022-11-20T04:13:57.685Z,59.6
2022-11-20T04:19:16.474Z,59.4
2022-11-20T04:24:34.688Z,59.8
2022-11-20T04:29:53.466Z,59.8
2022-11-20T04:35:11.938Z,59.5
2022-11-20T04:40:30.446Z,59.3
2022-11-20T04:45:49.204Z,58.9
2022-11-20T04:51:07.975Z,59.4
2022-11-20T04:56:26.717Z,59.6
2022-11-20T05:01:45.757Z,59.3
2022-11-20T05:07:04.285Z,59.8
2022-11-20T05:12:22.778Z,59
2022-11-20T05:17:40.745Z,59.5
2022-11-20T05:22:59.519Z,59.2
2022-11-20T05:28:18.261Z,59.8
2022-11-20T05:33:36.185Z,59.5
2022-11-20T05:39:02.597Z,58.8
2022-11-20T05:44:21.367Z,59.3
2022-11-20T05:49:39.591Z,58.5
2022-11-20T05:54:58.077Z,59.3
2022-11-20T06:00:16.563Z,58.6
2022-11-20T06:05:34.774Z,58.2
2022-11-20T06:10:52.993Z,58.4
2022-11-20T06:16:11.509Z,59.2
2022-11-20T06:21:30.282Z,58.5
2022-11-20T06:26:48.749Z,58.9
2022-11-20T06:32:07.524Z,58.2
2022-11-20T06:37:26.006Z,58.9
2022-11-20T06:42:44.500Z,57.4
2022-11-20T06:48:02.985Z,58.3
2022-11-20T06:53:21.486Z,58.8
2022-11-20T06:58:40.266Z,58
2022-11-20T07:03:58.755Z,58.6
2022-11-20T07:09:16.975Z,58.7
2022-11-20T07:14:35.213Z,58
2022-11-20T07:19:53.697Z,58.5
2022-11-20T07:25:12.455Z,58.1
2022-11-20T07:30:15.051Z,58.5
2022-11-20T07:35:33.800Z,58.8
2022-11-20T07:40:52.233Z,58.6
2022-11-20T07:46:10.703Z,57.9
2022-11-20T07:51:29.163Z,58.7
2022-11-20T07:56:47.903Z,57.9
2022-11-20T08:02:06.395Z,58.2
2022-11-20T08:07:24.903Z,58.5
2022-11-20T08:12:43.371Z,57.4
2022-11-20T08:18:32.909Z,58.1
2022-11-20T08:23:51.550Z,57.6
2022-11-20T08:29:10.041Z,57.7
2022-11-20T08:34:28.525Z,57.4
2022-11-20T08:39:47.309Z,57.6
2022-11-20T08:45:05.780Z,57.4
2022-11-20T08:50:24.502Z,57.2
2022-11-20T08:55:42.968Z,57.3
2022-11-20T09:01:01.558Z,58.6
2022-11-20T09:06:20.047Z,54.5
2022-11-20T09:11:38.518Z,54.5
2022-11-20T09:16:57.292Z,54.8
2022-11-20T09:22:00.753Z,54.5
2022-11-20T09:27:18.978Z,54.6
2022-11-20T09:32:37.998Z,53.1
2022-11-20T09:37:56.746Z,52.2
2022-11-20T09:43:15.231Z,49.2
2022-11-20T09:48:33.695Z,50.4
2022-11-20T09:53:51.935Z,52.9
2022-11-20T09:59:10.678Z,53.9
2022-11-20T10:04:29.182Z,54.4
2022-11-20T10:09:47.676Z,54
2022-11-20T10:15:06.413Z,53.8
2022-11-20T10:20:24.877Z,54.7
2022-11-20T10:25:42.829Z,55.3
2022-11-20T10:31:01.303Z,54.7
2022-11-20T10:36:19.757Z,54.8
2022-11-20T10:41:39.253Z,55.8
2022-11-20T10:46:57.994Z,55.9
2022-11-20T10:52:16.453Z,55
2022-11-20T10:57:35.212Z,55.7
2022-11-20T11:02:53.971Z,55.8
2022-11-20T11:07:57.137Z,55.9
2022-11-20T11:13:15.887Z,55.8
2022-11-20T11:18:34.399Z,55.7
2022-11-20T11:23:52.823Z,55.9
2022-11-20T11:29:11.558Z,56
2022-11-20T11:34:30.310Z,55.8
2022-11-20T11:40:24.531Z,55.7
2022-11-20T11:45:43.057Z,55.2
2022-11-20T11:51:01.262Z,55.1
2022-11-20T11:56:20.036Z,55.2
2022-11-20T12:01:38.514Z,55.3
2022-11-20T12:06:56.996Z,55.2
2022-11-20T12:12:15.477Z,55.6
2022-11-20T12:17:33.941Z,55.9
2022-11-20T12:22:53.694Z,55.3
2022-11-20T12:28:12.445Z,55.5
2022-11-20T12:33:36.748Z,55.5
2022-11-20T12:38:55.523Z,52.4
2022-11-20T12:44:13.985Z,54.4
2022-11-20T12:49:32.173Z,54.8
2022-11-20T12:54:50.936Z,55.3
2022-11-20T13:00:09.711Z,55.1
2022-11-20T13:05:28.472Z,55.3
2022-11-20T13:10:47.237Z,56.4
2022-11-20T13:16:05.744Z,55.9
2022-11-20T13:21:24.207Z,55.5
2022-11-20T13:26:42.417Z,56.3
2022-11-20T13:32:08.643Z,56.2
2022-11-20T13:37:27.416Z,56.6
2022-11-20T13:42:45.922Z,55.9
2022-11-20T13:48:04.126Z,55.5
2022-11-20T13:53:22.632Z,55.7
2022-11-20T13:58:41.170Z,55.7
2022-11-20T14:04:07.777Z,56.4
2022-11-20T14:09:26.261Z,56.2
2022-11-20T14:14:45.019Z,56.4
2022-11-20T14:20:03.542Z,55.9
2022-11-20T14:25:22.446Z,55.6
2022-11-20T14:30:41.199Z,55.5
2022-11-20T14:35:59.959Z,57.4
2022-11-20T14:41:18.170Z,57.1
2022-11-20T14:46:36.390Z,58.1
2022-11-20T14:51:55.136Z,56.9
2022-11-20T14:57:13.659Z,57.8
2022-11-20T15:02:32.408Z,56.7
2022-11-20T15:07:50.891Z,58
2022-11-20T15:13:13.397Z,57.4
2022-11-20T15:18:31.615Z,56.9
2022-11-20T15:23:50.395Z,56.4
2022-11-20T15:29:08.586Z,56.5
2022-11-20T15:34:27.356Z,57
2022-11-20T15:39:29.945Z,57
2022-11-20T15:44:48.705Z,57
2022-11-20T15:50:06.652Z,57
2022-11-20T15:55:25.123Z,56.5
2022-11-20T16:00:43.899Z,57.3
2022-11-20T16:06:02.671Z,57.1
2022-11-20T16:11:21.156Z,57.1
2022-11-20T16:16:39.072Z,57.1
2022-11-20T16:22:03.662Z,56.4
2022-11-20T16:27:22.417Z,56.9
2022-11-20T16:32:41.173Z,56.7
2022-11-20T16:37:59.683Z,56
2022-11-20T16:43:18.167Z,56.8
2022-11-20T16:48:36.370Z,57.1
2022-11-20T16:53:54.892Z,57
2022-11-20T16:58:57.748Z,57.9
2022-11-20T17:04:16.525Z,57.6
2022-11-20T17:09:35.001Z,57.1
2022-11-20T17:14:52.945Z,57.2
2022-11-20T17:20:11.409Z,58.7
2022-11-20T17:25:30.211Z,57.2
2022-11-20T17:30:48.997Z,56.8
2022-11-20T17:36:07.469Z,56.9
2022-11-20T17:41:25.689Z,54.2
2022-11-20T17:46:43.881Z,55.7
2022-11-20T17:52:02.353Z,55.6
2022-11-20T17:57:21.145Z,56.8
2022-11-20T18:02:39.343Z,56.3
2022-11-20T18:07:58.297Z,56
2022-11-20T18:13:01.178Z,57.9
2022-11-20T18:18:19.952Z,56.7
2022-11-20T18:23:38.157Z,56.6
2022-11-20T18:28:56.377Z,57.3
2022-11-20T18:34:14.854Z,57.2
2022-11-20T18:39:33.332Z,57.4
2022-11-20T18:44:51.839Z,56.9
2022-11-20T18:50:10.316Z,57.9
2022-11-20T18:55:29.072Z,51.8
2022-11-20T19:00:47.802Z,55.2
2022-11-20T19:06:06.268Z,58.1
2022-11-20T19:11:24.479Z,58.2
2022-11-20T19:16:42.951Z,58.7
2022-11-20T19:22:01.160Z,57.9
2022-11-20T19:27:19.963Z,59.5
2022-11-20T19:32:39.290Z,58.6
2022-11-20T19:38:06.081Z,59
2022-11-20T19:43:24.586Z,58.5
2022-11-20T19:48:43.053Z,59.4
2022-11-20T19:53:46.210Z,59.3
2022-11-20T19:59:04.125Z,59.3
2022-11-20T20:04:22.574Z,59.4
2022-11-20T20:09:41.031Z,60.1
2022-11-20T20:14:59.242Z,59.5
2022-11-20T20:20:17.706Z,59
2022-11-20T20:25:36.472Z,59.3
2022-11-20T20:30:54.955Z,60.2
2022-11-20T20:36:13.178Z,58.1
2022-11-20T20:41:31.928Z,59.1
2022-11-20T20:46:50.709Z,58.6
2022-11-20T20:52:09.202Z,58.6
2022-11-20T20:57:27.674Z,60.2
2022-11-20T21:02:45.882Z,58.8
2022-11-20T21:08:04.089Z,59
2022-11-20T21:13:22.598Z,58.8
2022-11-20T21:18:40.782Z,59.4
2022-11-20T21:23:58.994Z,59.3
2022-11-20T21:29:17.494Z,59.1
2022-11-20T21:34:35.691Z,59.6
2022-11-20T21:39:54.461Z,59.3
2022-11-20T21:45:13.237Z,59.9
2022-11-20T21:50:31.728Z,60
2022-11-20T21:55:50.239Z,60.1
2022-11-20T22:01:08.147Z,60.2
2022-11-20T22:06:26.089Z,60.1
2022-11-20T22:11:44.835Z,60.4
2022-11-20T22:17:03.335Z,59.7
2022-11-20T22:22:21.504Z,59.5
2022-11-20T22:27:39.993Z,59.4
2022-11-20T22:32:58.463Z,59.4
2022-11-20T22:38:17.212Z,59.4
2022-11-20T22:43:35.691Z,59.5
2022-11-20T22:48:54.466Z,59.6
2022-11-20T22:54:12.958Z,59.7
2022-11-20T22:59:31.152Z,59.6
2022-11-20T23:04:49.907Z,60.3
2022-11-20T23:10:07.860Z,60.2
2022-11-20T23:15:26.347Z,60.5
2022-11-20T23:20:44.534Z,59.8
2022-11-20T23:26:03.017Z,59.5
2022-11-20T23:31:21.245Z,60.6
2022-11-20T23:36:40.002Z,60.5
2022-11-20T23:41:58.213Z,59.8
2022-11-20T23:47:16.977Z,60.4
2022-11-20T23:52:35.741Z,60.7
2022-11-20T23:57:54.222Z,60
